PWSweather.com
Personal Weather Stations
Station Observations
PEISSEN1
PeissenbergDE

PeissenbergDE

Lat: 47.791845, Lon: 11.064121

Elevation: 1929

Station Type: Davis Vantage Pro 2

wetter-peissenberg.de

High Low Average
Temperature 66.9°F19.4°C 50.7°F10.4°C 61.5°F16.4°C
Dew Point 52.9°F11.6°C 46.7°F8.2°C 50.1°F10.1°C
Winds 13.6 mph 21.9 kmh Calm Calm 5.0 mph W8.0 kmh W
Wind Gusts 25.0 mph40.2 kmh -- 9.0 mph14.5 kmh
Humidity 86% 52% 67%
Pressure 29.95 in1014.2 mb 29.70 in1005.8 mb -
Precipitation 0.00 in0.0 mm - -
Hour Temp Dew Point Humidity Winds Wind Gusts Pressure Precip Precip Rate Daily Precip Total
12:00 AM 60.6°F15.9°C 48.4°F9.1°C 64% 1.4 mph W2.3 kmh W 3.0 mph4.8 kmh 29.70 in1005.8 mb 0.00 in0.0 mm 0.00 in0.0 mm 0.00 in0.0 mm
12:10 AM 60.6°F15.9°C 47.5°F8.6°C 62% 1.6 mph WSW2.6 kmh WSW 2.0 mph3.2 kmh 29.70 in1005.8 mb 0.00 in0.0 mm 0.00 in0.0 mm 0.00 in0.0 mm
12:20 AM 61.7°F16.5°C 47.2°F8.4°C 59% 3.2 mph SW5.1 kmh SW 8.0 mph12.9 kmh 29.70 in1005.8 mb 0.00 in0.0 mm 0.00 in0.0 mm 0.00 in0.0 mm
02:00 AM 64.6°F18.1°C 49.9°F9.9°C 59% 4.7 mph W7.6 kmh W 8.0 mph12.9 kmh 29.71 in1006.1 mb 0.00 in0.0 mm 0.00 in0.0 mm 0.00 in0.0 mm
02:10 AM 64.6°F18.1°C 50.4°F10.2°C 60% 5.5 mph N8.9 kmh N 10.0 mph16.1 kmh 29.71 in1006.1 mb 0.00 in0.0 mm 0.00 in0.0 mm 0.00 in0.0 mm
02:20 AM 64.9°F18.3°C 50.7°F10.4°C 60% 9.9 mph SW15.9 kmh SW 19.0 mph30.6 kmh 29.72 in1006.4 mb 0.00 in0.0 mm 0.00 in0.0 mm 0.00 in0.0 mm
04:00 AM 64.2°F17.9°C 52.2°F11.2°C 65% 4.6 mph N7.4 kmh N 11.0 mph17.7 kmh 29.72 in1006.4 mb 0.00 in0.0 mm 0.00 in0.0 mm 0.00 in0.0 mm
04:10 AM 64.2°F17.9°C 52.6°F11.4°C 66% 7.3 mph E11.7 kmh E 13.0 mph20.9 kmh 29.72 in1006.4 mb 0.00 in0.0 mm 0.00 in0.0 mm 0.00 in0.0 mm
04:20 AM 64.2°F17.9°C 52.6°F11.4°C 66% 6.6 mph SW10.6 kmh SW 11.0 mph17.7 kmh 29.73 in1006.8 mb 0.00 in0.0 mm 0.00 in0.0 mm 0.00 in0.0 mm
06:00 AM 63.7°F17.6°C 52.9°F11.6°C 68% 13.6 mph WNW21.9 kmh WNW 25.0 mph40.2 kmh 29.76 in1007.8 mb 0.00 in0.0 mm 0.00 in0.0 mm 0.00 in0.0 mm
06:10 AM 63.5°F17.5°C 52.7°F11.5°C 68% 4.8 mph ENE7.7 kmh ENE 10.0 mph16.1 kmh 29.76 in1007.8 mb 0.00 in0.0 mm 0.00 in0.0 mm 0.00 in0.0 mm
06:20 AM 63.1°F17.3°C 52.8°F11.6°C 69% 7.0 mph WSW11.3 kmh WSW 11.0 mph17.7 kmh 29.76 in1007.8 mb 0.00 in0.0 mm 0.00 in0.0 mm 0.00 in0.0 mm
08:00 AM 61.9°F16.6°C 52.4°F11.3°C 71% 8.1 mph SW13.0 kmh SW 15.0 mph24.1 kmh 29.82 in1009.8 mb 0.00 in0.0 mm 0.00 in0.0 mm 0.00 in0.0 mm
08:10 AM 61.9°F16.6°C 52.4°F11.3°C 71% 10.6 mph W17.1 kmh W 19.0 mph30.6 kmh 29.83 in1010.2 mb 0.00 in0.0 mm 0.00 in0.0 mm 0.00 in0.0 mm
08:20 AM 61.7°F16.5°C 52.2°F11.2°C 71% 9.9 mph WSW15.9 kmh WSW 18.0 mph29.0 kmh 29.83 in1010.2 mb 0.00 in0.0 mm 0.00 in0.0 mm 0.00 in0.0 mm
10:00 AM 62.2°F16.8°C 51.9°F11.1°C 69% 10.6 mph W17.1 kmh W 18.0 mph29.0 kmh 29.88 in1011.9 mb 0.00 in0.0 mm 0.00 in0.0 mm 0.00 in0.0 mm
10:10 AM 62.1°F16.7°C 52.2°F11.2°C 70% 7.6 mph WSW12.2 kmh WSW 15.0 mph24.1 kmh 29.88 in1011.9 mb 0.00 in0.0 mm 0.00 in0.0 mm 0.00 in0.0 mm
10:20 AM 61.9°F16.6°C 52.4°F11.3°C 71% 6.6 mph WSW10.6 kmh WSW 12.0 mph19.3 kmh 29.89 in1012.2 mb 0.00 in0.0 mm 0.00 in0.0 mm 0.00 in0.0 mm
12:00 PM 63.9°F17.7°C 51.4°F10.8°C 64% 6.3 mph WSW10.1 kmh WSW 10.0 mph16.1 kmh 29.91 in1012.9 mb 0.00 in0.0 mm 0.00 in0.0 mm 0.00 in0.0 mm
12:10 PM 64.2°F17.9°C 50.9°F10.5°C 62% 8.0 mph W12.9 kmh W 15.0 mph24.1 kmh 29.91 in1012.9 mb 0.00 in0.0 mm 0.00 in0.0 mm 0.00 in0.0 mm
12:20 PM 64.4°F18.0°C 52.0°F11.1°C 64% 4.6 mph WSW7.4 kmh WSW 9.0 mph14.5 kmh 29.91 in1012.9 mb 0.00 in0.0 mm 0.00 in0.0 mm 0.00 in0.0 mm
02:00 PM 66.9°F19.4°C 50.2°F10.1°C 55% 6.2 mph SE10.0 kmh SE 12.0 mph19.3 kmh 29.91 in1012.9 mb 0.00 in0.0 mm 0.00 in0.0 mm 0.00 in0.0 mm
02:10 PM 66.7°F19.3°C 50.1°F10.1°C 55% 6.3 mph WNW10.1 kmh WNW 12.0 mph19.3 kmh 29.91 in1012.9 mb 0.00 in0.0 mm 0.00 in0.0 mm 0.00 in0.0 mm
02:20 PM 66.7°F19.3°C 49.1°F9.5°C 53% 8.4 mph SW13.5 kmh SW 14.0 mph22.5 kmh 29.91 in1012.9 mb 0.00 in0.0 mm 0.00 in0.0 mm 0.00 in0.0 mm
04:00 PM 66.4°F19.1°C 48.7°F9.3°C 53% 3.8 mph WSW6.1 kmh WSW 11.0 mph17.7 kmh 29.91 in1012.9 mb 0.00 in0.0 mm 0.00 in0.0 mm 0.00 in0.0 mm
04:10 PM 65.7°F18.7°C 47.6°F8.7°C 52% 5.8 mph N9.3 kmh N 11.0 mph17.7 kmh 29.91 in1012.9 mb 0.00 in0.0 mm 0.00 in0.0 mm 0.00 in0.0 mm
04:20 PM 65.1°F18.4°C 47.6°F8.7°C 53% 5.7 mph WSW9.2 kmh WSW 10.0 mph16.1 kmh 29.91 in1012.9 mb 0.00 in0.0 mm 0.00 in0.0 mm 0.00 in0.0 mm
06:00 PM 60.3°F15.7°C 48.4°F9.1°C 65% Calm Calm -- 29.93 in1013.5 mb 0.00 in0.0 mm 0.00 in0.0 mm 0.00 in0.0 mm
06:10 PM 59.5°F15.3°C 49.0°F9.4°C 68% Calm Calm -- 29.93 in1013.5 mb 0.00 in0.0 mm 0.00 in0.0 mm 0.00 in0.0 mm
06:20 PM 58.8°F14.9°C 49.4°F9.7°C 71% Calm Calm -- 29.93 in1013.5 mb 0.00 in0.0 mm 0.00 in0.0 mm 0.00 in0.0 mm
08:00 PM 54.1°F12.3°C 48.1°F8.9°C 80% Calm Calm -- 29.94 in1013.9 mb 0.00 in0.0 mm 0.00 in0.0 mm 0.00 in0.0 mm
08:10 PM 53.8°F12.1°C 47.8°F8.8°C 80% Calm Calm -- 29.94 in1013.9 mb 0.00 in0.0 mm 0.00 in0.0 mm 0.00 in0.0 mm
08:20 PM 53.2°F11.8°C 47.6°F8.7°C 81% Calm Calm -- 29.94 in1013.9 mb 0.00 in0.0 mm 0.00 in0.0 mm 0.00 in0.0 mm
10:00 PM 51.1°F10.6°C 47.0°F8.3°C 86% Calm Calm -- 29.95 in1014.2 mb 0.00 in0.0 mm 0.00 in0.0 mm 0.00 in0.0 mm
10:10 PM 50.9°F10.5°C 46.9°F8.3°C 86% Calm Calm -- 29.95 in1014.2 mb 0.00 in0.0 mm 0.00 in0.0 mm 0.00 in0.0 mm
10:20 PM 50.7°F10.4°C 46.7°F8.2°C 86% Calm Calm -- 29.94 in1013.9 mb 0.00 in0.0 mm 0.00 in0.0 mm 0.00 in0.0 mm